Time;durP1;ratioP1;P1;durP2;ratioP2;P2;SDS_P1;SDS_P2;PMS_P1;PMS_P2;Temp;Humidity;BMP_temperature;BMP_pressure;BME280_temperature;BME280_humidity;BME280_pressure;Samples;Min_cycle;Max_cycle;Signal;HPM_P1;HPM_P2
2021/05/04 00:00:36;;;;;;;18.25;4.45;;;;;;;10.22;74.68;96746.19;4967781;28;20104;-79
2021/05/04 00:03:03;;;;;;;18.30;4.72;;;;;;;10.28;74.49;96749.34;4961191;28;20078;-80
2021/05/04 00:05:29;;;;;;;17.08;4.55;;;;;;;10.12;75.48;96737.16;4964172;28;20065;-82
2021/05/04 00:07:56;;;;;;;20.70;4.80;;;;;;;10.19;75.39;96735.94;4961291;28;20046;-80
2021/05/04 00:10:23;;;;;;;16.58;4.95;;;;;;;10.16;75.45;96736.13;4978108;28;20203;-81
2021/05/04 00:12:49;;;;;;;14.52;4.13;;;;;;;10.15;75.53;96737.84;4979967;28;20055;-80
2021/05/04 00:15:16;;;;;;;10.27;4.00;;;;;;;9.85;77.01;96737.66;4984585;28;20139;-81
2021/05/04 00:17:43;;;;;;;13.93;2.90;;;;;;;9.62;77.47;96727.59;4983085;28;20117;-82
2021/05/04 00:20:10;;;;;;;17.63;3.13;;;;;;;10.18;76.19;96727.25;5004230;28;20508;-78
2021/05/04 00:22:36;;;;;;;14.98;3.10;;;;;;;10.14;76.88;96738.75;5007140;28;20049;-78
2021/05/04 00:25:03;;;;;;;8.80;2.50;;;;;;;10.15;77.04;96750.88;5027891;28;20594;-83
2021/05/04 00:27:30;;;;;;;10.52;2.05;;;;;;;10.39;75.41;96754.84;5039661;28;20082;-83
2021/05/04 00:29:56;;;;;;;13.30;2.17;;;;;;;10.46;74.44;96763.16;5061442;27;20511;-82
2021/05/04 00:32:23;;;;;;;10.10;1.77;;;;;;;10.12;75.37;96763.25;5057481;28;20116;-82
2021/05/04 00:34:53;;;;;;;9.65;1.63;;;;;;;10.18;75.26;96752.50;5026855;28;20056;-80
2021/05/04 00:37:20;;;;;;;7.85;1.55;;;;;;;10.20;75.01;96755.88;5031819;28;21225;-79
2021/05/04 00:39:46;;;;;;;4.13;1.00;;;;;;;9.78;75.25;96758.94;5059730;28;20060;-79
2021/05/04 00:42:12;;;;;;;4.57;0.90;;;;;;;9.42;76.40;96764.22;5060706;28;20049;-79
2021/05/04 00:44:39;;;;;;;4.05;0.98;;;;;;;9.60;75.78;96764.13;5057309;28;20049;-78
2021/05/04 00:47:05;;;;;;;3.75;0.85;;;;;;;9.45;76.39;96766.66;5049518;28;20122;-78
2021/05/04 00:49:32;;;;;;;3.15;0.60;;;;;;;9.39;76.76;96773.03;5032485;28;20053;-78
2021/05/04 00:51:58;;;;;;;2.85;0.93;;;;;;;9.26;76.20;96782.34;5005540;28;20058;-78
2021/05/04 00:54:26;;;;;;;1.25;0.30;;;;;;;9.28;76.22;96772.72;5029288;28;20071;-79
2021/05/04 00:56:54;;;;;;;5.75;0.55;;;;;;;9.16;76.40;96783.72;5038287;28;20041;-81
2021/05/04 00:59:24;;;;;;;1.38;0.50;;;;;;;9.07;76.61;96786.75;5036230;28;20052;-78
2021/05/04 01:01:55;;;;;;;1.50;0.50;;;;;;;8.81;77.37;96790.63;5015203;27;20114;-79
2021/05/04 01:04:23;;;;;;;0.30;0.20;;;;;;;8.50;78.75;96785.97;5039060;28;20455;-78
2021/05/04 01:06:50;;;;;;;1.90;0.47;;;;;;;9.02;77.12;96797.41;5018391;28;21402;-79
2021/05/04 01:09:17;;;;;;;1.38;0.50;;;;;;;8.85;78.42;96792.16;5051790;28;20068;-79
2021/05/04 01:11:47;;;;;;;1.50;0.60;;;;;;;9.05;77.75;96788.63;5048959;28;20042;-78
2021/05/04 01:14:15;;;;;;;2.15;0.40;;;;;;;9.14;77.80;96803.78;5026256;28;20064;-79
2021/05/04 01:16:49;;;;;;;3.25;0.77;;;;;;;8.91;79.29;96798.84;5043487;28;20461;-78
2021/05/04 01:19:17;;;;;;;2.40;0.88;;;;;;;9.06;78.86;96809.38;5040052;28;20056;-79
2021/05/04 01:21:44;;;;;;;1.00;0.57;;;;;;;9.14;78.71;96811.59;5055779;28;20045;-78
2021/05/04 01:24:11;;;;;;;2.80;0.85;;;;;;;8.78;79.81;96798.53;5072002;28;20040;-78
2021/05/04 01:26:45;;;;;;;3.33;1.30;;;;;;;8.75;79.46;96796.94;5042021;28;20056;-79
2021/05/04 01:29:13;;;;;;;8.68;1.95;;;;;;;8.44;79.57;96798.44;5034244;28;20434;-78
2021/05/04 01:31:40;;;;;;;5.25;1.50;;;;;;;8.58;78.75;96820.31;5053376;28;20104;-79
2021/05/04 01:34:07;;;;;;;8.05;2.05;;;;;;;8.93;76.77;96823.03;5053747;28;20061;-77
2021/05/04 01:36:34;;;;;;;7.47;2.50;;;;;;;8.64;77.30;96813.94;5044668;28;20106;-77
2021/05/04 01:39:05;;;;;;;5.32;2.05;;;;;;;8.42;77.42;96831.47;5042687;28;20056;-77
2021/05/04 01:41:31;;;;;;;11.55;3.17;;;;;;;8.45;75.80;96826.09;5044932;28;20419;-77
2021/05/04 01:43:58;;;;;;;12.70;2.65;;;;;;;8.32;75.90;96847.47;5022069;28;20136;-78
2021/05/04 01:46:24;;;;;;;11.80;2.45;;;;;;;8.22;75.49;96855.69;5044849;28;20071;-77
2021/05/04 01:48:51;;;;;;;8.85;2.42;;;;;;;8.44;74.63;96855.66;5070424;28;20040;-76
2021/05/04 01:51:18;;;;;;;16.98;2.85;;;;;;;8.18;75.39;96849.78;5038254;28;20053;-76
2021/05/04 01:53:44;;;;;;;13.70;2.38;;;;;;;8.19;75.85;96866.25;5041335;28;20513;-77
2021/05/04 01:56:11;;;;;;;9.25;2.65;;;;;;;8.09;75.46;96862.34;5021099;28;20052;-76
2021/05/04 01:58:37;;;;;;;13.10;2.70;;;;;;;8.20;75.19;96881.75;5043746;28;20099;-77
2021/05/04 02:01:04;;;;;;;17.23;3.03;;;;;;;7.97;76.55;96875.84;5059227;28;20064;-78
2021/05/04 02:03:30;;;;;;;14.00;3.03;;;;;;;8.08;76.37;96876.25;5024771;28;20541;-77
2021/05/04 02:05:56;;;;;;;14.73;2.95;;;;;;;8.43;75.29;96890.38;5041477;28;20131;-77
2021/05/04 02:08:23;;;;;;;11.00;2.15;;;;;;;8.33;75.14;96905.53;5037528;28;20380;-78
2021/05/04 02:10:49;;;;;;;11.63;2.42;;;;;;;8.61;74.64;96910.38;5021143;28;20053;-78
2021/05/04 02:13:16;;;;;;;11.85;2.55;;;;;;;8.80;74.22;96919.06;5008278;28;20041;-78
2021/05/04 02:15:42;;;;;;;16.33;3.72;;;;;;;8.70;74.93;96925.59;5047825;28;20472;-78
2021/05/04 02:18:08;;;;;;;6.20;2.35;;;;;;;8.54;76.09;96932.38;5036428;28;20041;-78
2021/05/04 02:20:35;;;;;;;10.05;2.20;;;;;;;8.70;75.53;96933.41;5029777;28;20046;-79
2021/05/04 02:23:03;;;;;;;8.57;1.95;;;;;;;8.55;76.02;96931.47;5021946;28;20046;-79
2021/05/04 02:25:29;;;;;;;8.27;1.77;;;;;;;8.36;76.24;96930.56;5035370;28;20052;-78
2021/05/04 02:27:55;;;;;;;2.90;0.95;;;;;;;8.49;75.55;96944.75;5038108;27;20048;-78
2021/05/04 02:30:22;;;;;;;5.03;0.95;;;;;;;8.32;75.91;96950.66;5057254;28;20049;-78
2021/05/04 02:32:48;;;;;;;4.00;0.90;;;;;;;8.35;75.15;96960.94;5032180;28;20048;-77
2021/05/04 02:35:15;;;;;;;7.60;1.00;;;;;;;8.29;75.53;96968.97;5010931;28;20044;-78
2021/05/04 02:37:41;;;;;;;4.00;0.90;;;;;;;8.72;74.65;96970.63;5021016;28;20143;-77
2021/05/04 02:40:08;;;;;;;3.05;0.90;;;;;;;8.49;74.15;96969.00;5023664;28;20152;-78
2021/05/04 02:42:34;;;;;;;4.95;0.60;;;;;;;7.86;75.67;96964.69;5035098;28;20056;-77
2021/05/04 02:45:01;;;;;;;4.18;0.77;;;;;;;7.99;75.29;96972.84;5021554;28;20416;-77
2021/05/04 02:47:27;;;;;;;2.55;0.50;;;;;;;7.63;75.78;96973.38;5052562;28;20136;-78
2021/05/04 02:49:54;;;;;;;3.67;0.80;;;;;;;7.80;75.00;96973.56;5051264;28;20128;-79
2021/05/04 02:52:21;;;;;;;7.07;0.65;;;;;;;7.50;75.75;96968.72;5056808;28;20411;-78
2021/05/04 02:54:47;;;;;;;1.90;0.70;;;;;;;7.59;75.52;96963.16;5002252;28;20069;-78
2021/05/04 02:57:16;;;;;;;3.03;0.75;;;;;;;7.64;74.61;96964.69;5050425;28;20056;-79
2021/05/04 02:59:43;;;;;;;2.25;0.77;;;;;;;8.06;74.38;96974.25;5036106;28;20059;-79
2021/05/04 03:02:10;;;;;;;2.60;0.70;;;;;;;7.85;74.38;96971.63;5030343;28;20065;-79
2021/05/04 03:04:36;;;;;;;4.43;0.70;;;;;;;7.62;75.33;96976.06;5037609;28;20087;-78
2021/05/04 03:07:03;;;;;;;4.85;0.88;;;;;;;8.02;74.06;96975.28;5042030;28;20053;-78
2021/05/04 03:09:29;;;;;;;3.30;0.70;;;;;;;7.84;74.75;96982.94;5022950;28;20412;-78
2021/05/04 03:11:55;;;;;;;4.22;0.93;;;;;;;7.53;74.54;96972.03;5012465;28;20050;-78
2021/05/04 03:14:24;;;;;;;7.57;0.77;;;;;;;7.58;74.43;96971.88;5020726;28;20053;-78
2021/05/04 03:16:51;;;;;;;3.15;0.65;;;;;;;7.34;74.91;96981.44;5020006;28;20493;-78
2021/05/04 03:19:18;;;;;;;2.92;1.23;;;;;;;7.64;73.91;96975.06;5020123;28;20061;-78
2021/05/04 03:21:46;;;;;;;6.47;1.00;;;;;;;7.48;75.02;96976.59;5032960;28;20041;-77
2021/05/04 03:24:13;;;;;;;6.38;1.00;;;;;;;7.25;74.24;96955.81;5021573;28;20092;-78
2021/05/04 03:26:39;;;;;;;4.60;1.08;;;;;;;7.51;74.03;96966.06;5055556;28;20454;-78
2021/05/04 03:29:06;;;;;;;5.50;1.00;;;;;;;7.27;75.17;96951.44;5023391;28;20508;-78
2021/05/04 03:31:32;;;;;;;3.75;1.10;;;;;;;7.27;74.88;96948.84;5040261;28;20041;-78
2021/05/04 03:33:59;;;;;;;5.18;0.73;;;;;;;7.13;75.17;96943.31;5034629;28;20072;-77
2021/05/04 03:36:25;;;;;;;11.43;1.45;;;;;;;7.08;75.11;96933.13;5020720;28;20072;-78
2021/05/04 03:38:52;;;;;;;4.57;1.02;;;;;;;6.80;75.32;96929.84;5022920;28;20468;-78
2021/05/04 03:41:18;;;;;;;7.68;1.00;;;;;;;7.03;74.85;96922.06;5029673;28;20050;-78
2021/05/04 03:43:45;;;;;;;5.82;0.88;;;;;;;6.73;76.33;96920.59;5028594;28;20041;-78
2021/05/04 03:46:11;;;;;;;9.27;1.20;;;;;;;7.10;75.74;96933.88;5028099;28;20099;-79
2021/05/04 03:48:37;;;;;;;7.57;1.23;;;;;;;6.80;76.63;96937.63;5021748;28;20042;-78
2021/05/04 03:51:06;;;;;;;4.30;0.85;;;;;;;6.85;76.35;96936.56;5021808;28;20049;-78
2021/05/04 03:53:38;;;;;;;6.13;0.90;;;;;;;6.91;75.97;96938.91;5039879;28;20099;-78
2021/05/04 03:56:05;;;;;;;6.00;0.80;;;;;;;6.87;76.27;96952.91;5003612;28;20061;-78
2021/05/04 03:58:33;;;;;;;5.97;0.82;;;;;;;6.97;75.80;96950.81;5027443;28;20041;-79
2021/05/04 04:01:00;;;;;;;2.47;0.55;;;;;;;6.81;76.58;96963.50;5021890;28;20057;-79
2021/05/04 04:03:26;;;;;;;1.15;0.63;;;;;;;6.74;76.46;96977.63;5047641;28;20217;-78
2021/05/04 04:05:53;;;;;;;1.50;0.73;;;;;;;6.81;76.56;96984.25;5041648;27;20122;-78
2021/05/04 04:08:20;;;;;;;2.95;0.55;;;;;;;7.09;75.22;96983.28;5049586;28;20190;-79
2021/05/04 04:10:47;;;;;;;2.63;0.40;;;;;;;6.64;77.03;96985.78;5025183;28;20447;-78
2021/05/04 04:13:14;;;;;;;3.05;0.38;;;;;;;6.82;75.67;96988.56;5023324;28;20088;-78
2021/05/04 04:15:40;;;;;;;2.53;0.40;;;;;;;6.95;75.27;97000.19;5056990;28;20077;-79
2021/05/04 04:18:07;;;;;;;1.40;0.35;;;;;;;6.50;76.65;97004.41;5056104;28;20059;-78
2021/05/04 04:20:33;;;;;;;1.50;0.20;;;;;;;6.67;75.96;96999.47;5076262;27;20053;-78
2021/05/04 04:23:00;;;;;;;0.50;0.28;;;;;;;6.83;76.21;96999.78;5019788;28;20519;-78
2021/05/04 04:25:26;;;;;;;3.08;0.60;;;;;;;6.81;75.96;96999.00;5026389;28;20061;-78
2021/05/04 04:27:53;;;;;;;2.08;0.50;;;;;;;7.21;74.43;97006.19;5047907;28;20037;-79
2021/05/04 04:30:19;;;;;;;1.08;0.50;;;;;;;6.76;75.61;96991.34;5047527;28;20057;-78
2021/05/04 04:32:46;;;;;;;0.85;0.52;;;;;;;7.14;75.26;97012.53;5044944;28;20142;-78
2021/05/04 04:35:13;;;;;;;2.28;0.77;;;;;;;7.43;74.23;97014.88;5041901;28;20041;-79
2021/05/04 04:37:40;;;;;;;0.45;0.45;;;;;;;7.24;74.98;97022.47;5049722;28;20045;-79
2021/05/04 04:40:07;;;;;;;2.40;0.70;;;;;;;7.50;74.73;97026.72;5024907;28;20511;-79
2021/05/04 04:42:35;;;;;;;1.77;0.63;;;;;;;7.25;75.25;97016.41;5053948;28;20040;-78
2021/05/04 04:45:03;;;;;;;1.27;0.65;;;;;;;7.08;76.13;97017.94;5054430;28;20455;-78
2021/05/04 04:47:29;;;;;;;1.50;0.82;;;;;;;7.31;75.91;97026.56;5031100;28;20049;-78
2021/05/04 04:49:56;;;;;;;1.75;0.73;;;;;;;7.08;75.69;97016.19;5034151;28;20048;-79
2021/05/04 04:52:22;;;;;;;2.08;1.13;;;;;;;7.27;75.90;97024.13;5060359;28;20055;-78
2021/05/04 04:54:48;;;;;;;4.30;1.48;;;;;;;7.25;75.86;97012.94;5049616;28;20423;-79
2021/05/04 04:57:15;;;;;;;4.82;1.52;;;;;;;7.07;75.96;96996.31;5045762;28;20049;-78
2021/05/04 04:59:42;;;;;;;4.22;1.60;;;;;;;7.35;75.39;97022.09;5040729;28;20041;-78
2021/05/04 05:02:08;;;;;;;1.40;1.30;;;;;;;6.91;75.26;97005.53;5010646;28;20048;-79
2021/05/04 05:04:35;;;;;;;2.72;1.20;;;;;;;7.25;74.61;97011.19;5055451;28;20176;-78
2021/05/04 05:07:05;;;;;;;2.25;1.30;;;;;;;7.39;74.63;97034.06;5058253;28;20564;-78
2021/05/04 05:09:51;;;;;;;1.95;1.00;;;;;;;8.06;73.28;97057.47;5058237;28;20045;-78
2021/05/04 05:12:17;;;;;;;2.85;1.17;;;;;;;7.70;73.40;97052.81;5026356;28;20381;-78
2021/05/04 05:14:43;;;;;;;1.65;1.17;;;;;;;8.08;72.48;97053.06;5057228;28;20040;-78
2021/05/04 05:17:11;;;;;;;3.72;1.33;;;;;;;8.11;72.67;97065.91;5078942;28;20137;-78
2021/05/04 05:19:39;;;;;;;2.75;1.45;;;;;;;7.58;72.61;97078.41;5039717;28;20046;-79
2021/05/04 05:22:05;;;;;;;2.53;0.77;;;;;;;7.56;72.72;97085.41;5039665;28;20063;-77
2021/05/04 05:24:33;;;;;;;2.45;0.80;;;;;;;7.16;73.70;97079.03;5067150;28;20076;-78
2021/05/04 05:27:00;;;;;;;1.45;0.50;;;;;;;6.97;74.45;97088.38;5068107;28;20043;-78
2021/05/04 05:29:34;;;;;;;3.97;0.75;;;;;;;7.18;74.45;97120.53;5043521;28;20476;-78
2021/05/04 05:32:02;;;;;;;3.53;0.80;;;;;;;7.27;73.89;97107.22;5059534;28;20150;-78
2021/05/04 05:34:28;;;;;;;2.22;0.60;;;;;;;7.41;73.82;97120.56;5074962;28;20059;-78
2021/05/04 05:36:55;;;;;;;2.83;0.80;;;;;;;7.22;73.59;97115.19;5050528;28;20056;-78
2021/05/04 05:39:22;;;;;;;1.85;0.70;;;;;;;6.98;74.08;97123.81;5076592;28;20044;-77
2021/05/04 05:41:49;;;;;;;1.17;0.70;;;;;;;7.17;74.94;97135.28;5082353;28;20040;-78
2021/05/04 05:44:15;;;;;;;2.85;0.70;;;;;;;7.04;74.10;97118.44;5063852;28;20043;-78
2021/05/04 05:46:42;;;;;;;2.40;0.68;;;;;;;7.04;75.28;97127.97;5073631;28;20047;-77
2021/05/04 05:49:10;;;;;;;4.78;0.80;;;;;;;7.22;73.55;97135.09;5065734;28;20152;-78
2021/05/04 05:51:38;;;;;;;5.72;1.05;;;;;;;7.30;73.64;97151.25;5078326;28;20051;-77
2021/05/04 05:54:05;;;;;;;1.95;0.63;;;;;;;7.69;72.87;97157.63;5078407;28;20068;-77
2021/05/04 05:56:32;;;;;;;1.65;0.52;;;;;;;7.47;71.88;97153.28;5040409;28;20132;-76
2021/05/04 05:58:59;;;;;;;0.60;0.40;;;;;;;7.80;71.25;97160.69;5026020;28;20049;-77
2021/05/04 06:01:25;;;;;;;4.53;0.57;;;;;;;7.56;71.85;97161.59;5040062;28;20051;-76
2021/05/04 06:03:52;;;;;;;1.33;0.60;;;;;;;7.53;71.28;97161.69;5050409;28;20408;-77
2021/05/04 06:06:18;;;;;;;1.85;0.30;;;;;;;7.59;71.32;97177.06;5073918;28;20492;-77
2021/05/04 06:08:45;;;;;;;2.05;0.50;;;;;;;7.82;70.93;97171.88;5041982;28;20526;-76
2021/05/04 06:11:11;;;;;;;2.25;0.30;;;;;;;7.71;70.46;97178.38;5045408;28;20131;-76
2021/05/04 06:13:40;;;;;;;0.30;0.20;;;;;;;7.65;71.19;97170.78;5041103;28;20085;-78
2021/05/04 06:16:08;;;;;;;2.47;0.32;;;;;;;7.32;71.50;97160.72;5072255;28;20049;-77
2021/05/04 06:18:34;;;;;;;1.27;0.30;;;;;;;7.91;70.79;97203.66;5044213;28;20045;-79
2021/05/04 06:21:00;;;;;;;8.05;0.50;;;;;;;7.75;70.34;97206.78;5052213;28;20045;-79
2021/05/04 06:23:27;;;;;;;0.45;0.30;;;;;;;8.08;70.63;97198.66;5026847;28;20045;-77
2021/05/04 06:25:54;;;;;;;0.32;0.22;;;;;;;7.99;69.72;97199.00;5024155;28;20377;-77
2021/05/04 06:28:21;;;;;;;2.35;0.40;;;;;;;8.13;69.88;97210.59;5022249;28;20049;-78
2021/05/04 06:30:47;;;;;;;2.75;0.25;;;;;;;8.13;68.90;97204.53;5026481;28;20071;-78
2021/05/04 06:33:15;;;;;;;1.55;0.20;;;;;;;8.46;68.71;97218.91;5071737;28;20056;-78
2021/05/04 06:35:44;;;;;;;2.50;0.50;;;;;;;8.18;68.52;97234.69;5051238;28;20488;-79
2021/05/04 06:38:12;;;;;;;1.85;0.20;;;;;;;8.09;70.20;97226.38;5013278;28;20129;-77
2021/05/04 06:40:40;;;;;;;1.15;0.30;;;;;;;8.38;68.74;97238.31;5054819;28;20258;-79
2021/05/04 06:43:07;;;;;;;1.65;0.38;;;;;;;8.20;68.90;97251.06;5073078;28;20051;-78
2021/05/04 06:45:34;;;;;;;2.95;0.22;;;;;;;7.85;69.57;97247.16;5022263;28;20041;-78
2021/05/04 06:48:01;;;;;;;3.80;0.30;;;;;;;8.44;68.87;97269.31;5049960;28;20080;-80
2021/05/04 06:50:28;;;;;;;1.40;0.40;;;;;;;8.12;69.44;97262.66;5029070;28;20045;-78
2021/05/04 06:52:55;;;;;;;1.27;0.30;;;;;;;8.21;69.26;97257.94;5043727;28;20060;-79
2021/05/04 06:55:22;;;;;;;0.73;0.20;;;;;;;8.17;68.86;97273.72;5069011;28;20048;-79
2021/05/04 06:57:48;;;;;;;4.25;0.45;;;;;;;7.74;70.50;97282.22;5039760;28;20045;-78
2021/05/04 07:00:15;;;;;;;1.85;0.30;;;;;;;7.63;69.66;97269.56;5067454;28;20050;-77
2021/05/04 07:02:41;;;;;;;0.98;0.25;;;;;;;8.34;68.11;97300.03;5050637;28;20052;-77
2021/05/04 07:05:09;;;;;;;3.83;0.30;;;;;;;8.02;69.31;97295.06;5027799;28;20040;-77
2021/05/04 07:07:36;;;;;;;1.88;0.30;;;;;;;8.43;68.94;97296.22;5065555;28;20059;-76
2021/05/04 07:10:03;;;;;;;0.82;0.17;;;;;;;8.22;69.57;97305.63;5066503;28;20052;-74
2021/05/04 07:12:30;;;;;;;2.50;0.20;;;;;;;8.38;67.97;97318.97;5041458;28;20051;-76
2021/05/04 07:14:56;;;;;;;2.15;0.88;;;;;;;8.14;68.48;97303.31;5041255;28;20606;-76
2021/05/04 07:17:24;;;;;;;2.20;0.20;;;;;;;8.30;69.10;97338.28;5045955;28;20349;-76
2021/05/04 07:19:51;;;;;;;1.60;0.40;;;;;;;8.15;70.64;97340.56;5039963;28;20080;-76
2021/05/04 07:22:21;;;;;;;1.35;0.20;;;;;;;8.35;68.94;97338.13;5037189;28;20560;-76
2021/05/04 07:24:48;;;;;;;1.30;0.30;;;;;;;8.04;71.03;97359.13;5071091;28;20044;-76
2021/05/04 07:27:15;;;;;;;0.17;0.10;;;;;;;8.21;70.40;97361.13;5056339;28;20045;-75
2021/05/04 07:29:43;;;;;;;3.08;0.52;;;;;;;7.91;69.90;97354.41;5077470;28;20451;-78
2021/05/04 07:32:10;;;;;;;0.85;0.20;;;;;;;7.77;71.25;97371.31;5043308;28;20040;-78
2021/05/04 07:34:37;;;;;;;0.47;0.20;;;;;;;7.63;70.98;97370.91;5052511;28;20127;-77
2021/05/04 07:37:04;;;;;;;1.30;0.70;;;;;;;7.63;72.22;97383.06;5044008;28;20404;-76
2021/05/04 07:39:30;;;;;;;2.20;0.20;;;;;;;7.58;72.75;97372.81;5024429;28;20389;-77
2021/05/04 07:41:56;;;;;;;1.55;0.20;;;;;;;7.73;72.45;97387.06;5023292;28;20127;-77
2021/05/04 07:44:23;;;;;;;2.42;0.20;;;;;;;7.64;73.24;97383.00;5065142;28;20049;-78
2021/05/04 07:46:49;;;;;;;1.88;0.98;;;;;;;7.95;72.68;97419.25;5057361;28;20049;-78
2021/05/04 07:49:29;;;;;;;0.10;0.10;;;;;;;7.73;73.45;97423.44;5027447;28;20048;-80
2021/05/04 07:51:57;;;;;;;3.67;0.40;;;;;;;7.94;73.01;97422.75;5034940;28;22321;-78
2021/05/04 07:54:27;;;;;;;0.35;0.10;;;;;;;7.58;72.02;97422.19;5059555;28;20452;-77
2021/05/04 07:56:54;;;;;;;1.35;0.22;;;;;;;7.37;73.33;97436.72;5056370;28;20530;-77
2021/05/04 07:59:22;;;;;;;0.68;0.30;;;;;;;7.49;74.22;97455.38;5043129;28;20037;-79
2021/05/04 08:01:48;;;;;;;2.17;0.30;;;;;;;7.63;72.84;97461.00;5050510;28;20420;-79
2021/05/04 08:04:15;;;;;;;0.30;0.30;;;;;;;7.25;74.75;97467.38;5023571;28;20056;-76
2021/05/04 08:06:43;;;;;;;1.70;0.60;;;;;;;7.74;73.51;97477.97;5058682;28;20079;-79
2021/05/04 08:09:09;;;;;;;1.02;0.30;;;;;;;7.79;72.51;97486.47;5023621;28;20382;-80
2021/05/04 08:11:36;;;;;;;0.55;0.20;;;;;;;7.73;73.22;97486.66;5019539;28;20042;-79
2021/05/04 08:14:04;;;;;;;2.80;0.47;;;;;;;7.99;72.79;97511.00;5006962;28;20053;-79
2021/05/04 08:16:32;;;;;;;1.67;0.40;;;;;;;7.68;74.82;97516.28;5035607;28;20049;-76
2021/05/04 08:18:59;;;;;;;1.45;0.13;;;;;;;7.79;72.92;97519.41;5025643;28;20512;-80
2021/05/04 08:21:32;;;;;;;2.60;0.40;;;;;;;8.03;72.16;97517.78;5025635;28;20056;-81
2021/05/04 08:24:02;;;;;;;0.30;0.20;;;;;;;8.15;72.52;97543.41;5026195;28;20041;-79
2021/05/04 08:26:29;;;;;;;0.20;0.20;;;;;;;8.14;71.70;97541.72;5006004;28;20049;-81
2021/05/04 08:28:56;;;;;;;2.10;0.38;;;;;;;8.15;71.40;97540.81;5040093;28;20069;-81
2021/05/04 08:31:24;;;;;;;0.00;0.00;;;;;;;8.16;72.84;97558.94;5037048;28;20464;-78
2021/05/04 08:33:51;;;;;;;2.28;0.30;;;;;;;8.10;72.49;97553.97;5030950;28;20500;-78
2021/05/04 08:36:18;;;;;;;0.65;0.20;;;;;;;8.09;71.02;97574.81;5048094;28;20620;-79
2021/05/04 08:38:44;;;;;;;0.47;0.10;;;;;;;8.00;72.10;97582.91;5017100;28;20042;-81
2021/05/04 08:41:14;;;;;;;3.03;0.65;;;;;;;8.32;72.79;97570.59;5006398;28;20046;-82
2021/05/04 08:43:48;;;;;;;0.90;0.20;;;;;;;8.29;72.24;97588.03;4996382;28;20049;-81
2021/05/04 08:46:15;;;;;;;2.95;0.82;;;;;;;7.97;72.02;97602.03;5008314;28;20131;-82
2021/05/04 08:48:45;;;;;;;1.08;0.40;;;;;;;8.27;71.49;97590.69;5007476;28;20075;-82
2021/05/04 08:51:15;;;;;;;0.70;0.40;;;;;;;8.46;71.06;97601.38;5022153;28;20531;-88
2021/05/04 08:53:59;;;;;;;0.88;0.35;;;;;;;8.27;72.07;97610.63;5022744;28;20068;-80
2021/05/04 08:56:25;;;;;;;0.98;0.28;;;;;;;8.18;71.59;97583.16;5018211;28;20179;-78
2021/05/04 08:58:51;;;;;;;1.55;0.30;;;;;;;8.59;70.49;97613.09;5037211;28;20049;-79
2021/05/04 09:01:21;;;;;;;0.22;0.20;;;;;;;8.39;69.90;97615.50;5019243;28;20053;-85
2021/05/04 09:03:51;;;;;;;0.75;0.20;;;;;;;8.77;69.93;97631.63;5029872;28;20052;-84
2021/05/04 09:06:29;;;;;;;0.38;0.20;;;;;;;9.16;68.57;97635.44;5022256;28;20045;-83
2021/05/04 09:09:07;;;;;;;0.60;0.22;;;;;;;9.10;69.15;97633.94;5019281;28;20148;-81
2021/05/04 09:14:35;;;;;;;0.30;0.30;;;;;;;8.73;70.33;97668.16;5037662;28;20381;-81
2021/05/04 09:17:17;;;;;;;2.30;0.30;;;;;;;8.88;69.45;97658.97;5055841;28;20072;-77
2021/05/04 09:20:04;;;;;;;0.90;0.40;;;;;;;9.18;68.31;97673.59;5056627;28;20051;-78
2021/05/04 09:22:39;;;;;;;0.85;0.30;;;;;;;9.60;67.79;97684.25;5077212;28;20052;-78
2021/05/04 09:25:26;;;;;;;2.03;0.32;;;;;;;9.44;67.94;97693.56;5027619;28;20044;-78
2021/05/04 09:28:04;;;;;;;0.30;0.30;;;;;;;9.11;68.32;97703.34;5042104;28;20056;-83
2021/05/04 09:30:32;;;;;;;1.38;0.25;;;;;;;9.24;68.25;97698.59;5022257;28;20053;-81
2021/05/04 09:33:15;;;;;;;0.88;0.20;;;;;;;9.45;68.35;97700.44;5030134;28;20051;-77
2021/05/04 09:35:41;;;;;;;0.15;0.15;;;;;;;9.51;68.39;97708.06;5059983;28;22273;-80
2021/05/04 09:38:10;;;;;;;0.43;0.22;;;;;;;9.62;66.39;97729.41;5021458;28;20072;-79
2021/05/04 09:40:41;;;;;;;;;;;;;;;10.07;67.50;97733.88;5026597;28;20573;-78
2021/05/04 09:43:17;;;;;;;2.35;0.30;;;;;;;10.09;66.09;97747.69;5076241;28;20402;-79
2021/05/04 09:45:44;;;;;;;1.35;0.30;;;;;;;10.45;64.47;97743.75;5052173;28;20467;-77
2021/05/04 09:48:16;;;;;;;1.52;0.28;;;;;;;10.11;64.99;97740.69;5039564;28;20045;-77
2021/05/04 09:50:47;;;;;;;4.13;0.35;;;;;;;10.77;64.25;97755.56;5055660;28;20539;-77
2021/05/04 09:53:16;;;;;;;1.02;0.20;;;;;;;11.09;62.78;97756.91;5068582;28;20049;-78
2021/05/04 09:55:57;;;;;;;1.13;0.25;;;;;;;10.93;62.86;97777.56;5054506;28;20415;-77
2021/05/04 09:58:59;;;;;;;0.77;0.30;;;;;;;11.57;62.39;97779.31;5033989;28;20531;-80
2021/05/04 10:01:29;;;;;;;1.00;0.20;;;;;;;11.87;60.78;97792.91;5007837;28;20065;-77
2021/05/04 10:03:56;;;;;;;0.90;0.20;;;;;;;11.75;59.87;97789.03;5031735;28;20138;-80
2021/05/04 10:06:23;;;;;;;6.18;0.35;;;;;;;11.65;60.25;97783.34;5074552;27;20459;-78
2021/05/04 10:08:52;;;;;;;0.63;0.20;;;;;;;11.83;62.22;97809.66;5018571;28;20053;-77
2021/05/04 10:11:22;;;;;;;1.23;0.30;;;;;;;12.23;59.63;97807.84;5007164;28;20076;-82
2021/05/04 10:13:58;;;;;;;0.55;0.20;;;;;;;12.32;58.46;97809.25;5031314;28;20055;-79
2021/05/04 10:16:31;;;;;;;0.10;0.10;;;;;;;12.17;58.31;97813.38;5053657;28;20057;-77
2021/05/04 10:18:59;;;;;;;2.15;0.20;;;;;;;11.75;57.50;97812.59;5045952;28;20042;-80
2021/05/04 10:21:27;;;;;;;0.43;0.03;;;;;;;11.74;59.14;97819.59;5040579;28;20148;-80
2021/05/04 10:23:54;;;;;;;0.10;0.10;;;;;;;11.72;60.16;97803.13;5037273;28;20053;-78
2021/05/04 10:26:29;;;;;;;0.75;0.40;;;;;;;12.59;58.29;97825.47;5031401;28;20052;-77
2021/05/04 10:28:59;;;;;;;0.20;0.20;;;;;;;11.65;58.48;97824.34;5073916;28;20049;-73
2021/05/04 10:31:38;;;;;;;0.60;0.22;;;;;;;12.31;59.99;97833.72;5043408;28;20110;-77
2021/05/04 10:34:27;;;;;;;0.35;0.30;;;;;;;12.02;60.93;97837.59;5023501;28;20110;-78
2021/05/04 10:36:56;;;;;;;0.82;0.30;;;;;;;12.85;57.71;97846.13;5037092;28;20065;-76
2021/05/04 10:39:55;;;;;;;0.30;0.20;;;;;;;12.97;58.43;97852.53;5040734;28;20128;-77
2021/05/04 10:42:36;;;;;;;0.10;0.10;;;;;;;11.70;60.69;97853.78;5004868;28;20410;-77
2021/05/04 10:45:06;;;;;;;0.30;0.30;;;;;;;11.94;60.23;97863.22;5018929;28;20491;-78
2021/05/04 10:47:39;;;;;;;0.80;0.22;;;;;;;11.72;60.67;97858.03;5022840;28;20049;-79
2021/05/04 10:50:08;;;;;;;0.57;0.30;;;;;;;11.02;61.56;97864.34;5009176;28;20156;-77
2021/05/04 10:52:51;;;;;;;1.05;0.30;;;;;;;12.13;60.83;97882.47;5001706;28;20081;-76
2021/05/04 10:55:20;;;;;;;0.28;0.20;;;;;;;12.20;60.27;97880.44;5019320;28;20148;-76
2021/05/04 10:58:05;;;;;;;2.30;0.38;;;;;;;13.61;56.87;97899.38;5016573;28;20115;-78
2021/05/04 11:00:53;;;;;;;0.47;0.20;;;;;;;14.07;56.62;97893.56;5016501;28;20569;-80
2021/05/04 11:03:31;;;;;;;1.30;0.22;;;;;;;14.25;54.44;97882.13;5004567;28;20145;-78
2021/05/04 11:06:04;;;;;;;1.27;0.10;;;;;;;14.53;51.96;97920.16;5019030;28;20045;-76
2021/05/04 11:08:43;;;;;;;0.63;0.38;;;;;;;14.96;51.87;97909.09;5019490;28;20049;-76
2021/05/04 11:11:35;;;;;;;1.95;0.20;;;;;;;14.39;52.34;97926.94;5016546;28;20045;-78
2021/05/04 11:14:12;;;;;;;1.25;0.25;;;;;;;14.57;52.03;97919.06;5005590;28;20049;-76
2021/05/04 11:17:00;;;;;;;0.20;0.20;;;;;;;14.99;50.86;97940.50;5015467;28;20042;-77
2021/05/04 11:19:33;;;;;;;1.00;0.20;;;;;;;15.25;50.62;97939.09;5023440;28;20049;-76
2021/05/04 11:22:05;;;;;;;0.10;0.10;;;;;;;14.72;48.41;97952.47;4996575;28;20049;-74
2021/05/04 11:24:32;;;;;;;;;;;;;;;15.73;49.50;97955.78;4999924;28;20131;-75
2021/05/04 11:27:00;;;;;;;0.95;0.22;;;;;;;15.40;47.04;97961.06;5017705;28;19925;-74
2021/05/04 11:29:33;;;;;;;0.98;0.20;;;;;;;16.28;44.21;97956.13;5017079;28;20509;-74
2021/05/04 11:32:27;;;;;;;0.35;0.20;;;;;;;14.71;47.33;97954.22;5042910;28;20042;-74
2021/05/04 11:35:02;;;;;;;0.68;0.20;;;;;;;15.47;47.05;97938.75;5049172;28;20123;-74
2021/05/04 11:37:32;;;;;;;2.50;0.20;;;;;;;15.10;45.46;97961.81;5051857;28;20416;-74
2021/05/04 11:40:23;;;;;;;0.28;0.13;;;;;;;16.29;44.20;97969.22;5025926;28;20162;-75
2021/05/04 11:42:53;;;;;;;0.22;0.22;;;;;;;16.40;43.77;97963.34;5018766;28;20045;-75
2021/05/04 11:45:28;;;;;;;0.32;0.20;;;;;;;16.21;43.58;97970.59;5039342;28;20056;-74
2021/05/04 11:48:16;;;;;;;0.28;0.10;;;;;;;16.77;42.92;97978.72;5047741;28;20072;-75
2021/05/04 11:50:45;;;;;;;0.10;0.10;;;;;;;16.42;42.22;97979.88;5034729;28;20087;-75